sensor_id;sensor_type;location;lat;lon;timestamp;P1;durP1;ratioP1;P2;durP2;ratioP2
42094;SDS011;27753;55.724;37.612;2022-09-03T00:07:58;2.28;;;1.35;;
42094;SDS011;27753;55.724;37.612;2022-09-03T00:10:33;7.47;;;1.63;;
42094;SDS011;27753;55.724;37.612;2022-09-03T00:13:03;3.78;;;1.38;;
42094;SDS011;27753;55.724;37.612;2022-09-03T00:15:31;1.38;;;1.00;;
42094;SDS011;27753;55.724;37.612;2022-09-03T00:18:03;1.83;;;1.10;;
42094;SDS011;27753;55.724;37.612;2022-09-03T00:20:32;1.73;;;1.35;;
42094;SDS011;27753;55.724;37.612;2022-09-03T00:23:00;4.10;;;1.83;;
42094;SDS011;27753;55.724;37.612;2022-09-03T00:25:42;1.85;;;1.40;;
42094;SDS011;27753;55.724;37.612;2022-09-03T00:28:16;4.78;;;1.73;;
42094;SDS011;27753;55.724;37.612;2022-09-03T00:30:44;2.35;;;1.55;;
42094;SDS011;27753;55.724;37.612;2022-09-03T00:33:18;2.97;;;1.88;;
42094;SDS011;27753;55.724;37.612;2022-09-03T00:35:47;4.70;;;1.90;;
42094;SDS011;27753;55.724;37.612;2022-09-03T00:38:15;2.08;;;1.55;;
42094;SDS011;27753;55.724;37.612;2022-09-03T00:40:54;3.92;;;1.60;;
42094;SDS011;27753;55.724;37.612;2022-09-03T00:48:29;2.75;;;1.42;;
42094;SDS011;27753;55.724;37.612;2022-09-03T01:01:12;2.67;;;1.20;;
42094;SDS011;27753;55.724;37.612;2022-09-03T01:06:42;1.80;;;1.20;;
42094;SDS011;27753;55.724;37.612;2022-09-03T01:17:59;2.28;;;1.45;;
42094;SDS011;27753;55.724;37.612;2022-09-03T01:20:52;3.15;;;2.30;;
42094;SDS011;27753;55.724;37.612;2022-09-03T01:26:26;3.58;;;2.15;;
42094;SDS011;27753;55.724;37.612;2022-09-03T01:29:02;2.17;;;1.90;;
42094;SDS011;27753;55.724;37.612;2022-09-03T01:37:31;2.53;;;2.00;;
42094;SDS011;27753;55.724;37.612;2022-09-03T01:42:49;2.78;;;2.10;;
42094;SDS011;27753;55.724;37.612;2022-09-03T01:45:25;2.17;;;1.65;;
42094;SDS011;27753;55.724;37.612;2022-09-03T01:50:45;4.75;;;2.90;;
42094;SDS011;27753;55.724;37.612;2022-09-03T02:01:45;3.13;;;2.22;;
42094;SDS011;27753;55.724;37.612;2022-09-03T02:04:36;4.88;;;2.00;;
42094;SDS011;27753;55.724;37.612;2022-09-03T02:07:02;2.95;;;1.90;;
42094;SDS011;27753;55.724;37.612;2022-09-03T02:09:30;2.30;;;2.10;;
42094;SDS011;27753;55.724;37.612;2022-09-03T02:12:01;3.03;;;1.70;;
42094;SDS011;27753;55.724;37.612;2022-09-03T02:14:38;3.72;;;2.03;;
42094;SDS011;27753;55.724;37.612;2022-09-03T02:17:04;3.63;;;2.35;;
42094;SDS011;27753;55.724;37.612;2022-09-03T02:21:58;8.25;;;2.78;;
42094;SDS011;27753;55.724;37.612;2022-09-03T02:24:25;5.93;;;1.98;;
42094;SDS011;27753;55.724;37.612;2022-09-03T02:26:52;4.47;;;2.13;;
42094;SDS011;27753;55.724;37.612;2022-09-03T02:29:18;3.13;;;2.05;;
42094;SDS011;27753;55.724;37.612;2022-09-03T02:31:45;4.87;;;2.27;;
42094;SDS011;27753;55.724;37.612;2022-09-03T02:34:11;2.88;;;1.95;;
42094;SDS011;27753;55.724;37.612;2022-09-03T02:36:42;4.70;;;1.80;;
42094;SDS011;27753;55.724;37.612;2022-09-03T02:39:12;2.60;;;1.95;;
42094;SDS011;27753;55.724;37.612;2022-09-03T02:41:39;4.10;;;1.73;;
42094;SDS011;27753;55.724;37.612;2022-09-03T02:44:12;2.22;;;2.00;;
42094;SDS011;27753;55.724;37.612;2022-09-03T02:46:57;4.18;;;1.63;;
42094;SDS011;27753;55.724;37.612;2022-09-03T02:49:26;4.13;;;2.03;;
42094;SDS011;27753;55.724;37.612;2022-09-03T02:51:56;2.20;;;1.75;;
42094;SDS011;27753;55.724;37.612;2022-09-03T02:54:30;2.58;;;2.05;;
42094;SDS011;27753;55.724;37.612;2022-09-03T02:56:57;3.70;;;2.15;;
42094;SDS011;27753;55.724;37.612;2022-09-03T02:59:23;3.00;;;2.08;;
42094;SDS011;27753;55.724;37.612;2022-09-03T03:01:52;3.42;;;1.98;;
42094;SDS011;27753;55.724;37.612;2022-09-03T03:04:19;3.95;;;2.60;;
42094;SDS011;27753;55.724;37.612;2022-09-03T03:06:45;4.28;;;2.35;;
42094;SDS011;27753;55.724;37.612;2022-09-03T03:09:11;3.92;;;2.30;;
42094;SDS011;27753;55.724;37.612;2022-09-03T03:11:37;3.60;;;2.30;;
42094;SDS011;27753;55.724;37.612;2022-09-03T03:14:04;2.67;;;2.05;;
42094;SDS011;27753;55.724;37.612;2022-09-03T03:16:30;3.15;;;2.40;;
42094;SDS011;27753;55.724;37.612;2022-09-03T03:18:56;3.08;;;2.35;;
42094;SDS011;27753;55.724;37.612;2022-09-03T03:21:22;4.22;;;2.33;;
42094;SDS011;27753;55.724;37.612;2022-09-03T03:23:48;3.20;;;2.40;;
42094;SDS011;27753;55.724;37.612;2022-09-03T03:26:15;3.05;;;2.25;;
42094;SDS011;27753;55.724;37.612;2022-09-03T03:28:43;3.75;;;2.33;;
42094;SDS011;27753;55.724;37.612;2022-09-03T03:33:38;3.35;;;2.33;;
42094;SDS011;27753;55.724;37.612;2022-09-03T03:36:05;4.03;;;3.53;;
42094;SDS011;27753;55.724;37.612;2022-09-03T03:38:33;8.32;;;3.83;;
42094;SDS011;27753;55.724;37.612;2022-09-03T03:41:05;5.32;;;3.35;;
42094;SDS011;27753;55.724;37.612;2022-09-03T03:43:34;8.23;;;3.67;;
42094;SDS011;27753;55.724;37.612;2022-09-03T03:46:00;8.05;;;3.97;;
42094;SDS011;27753;55.724;37.612;2022-09-03T03:48:26;4.32;;;3.83;;
42094;SDS011;27753;55.724;37.612;2022-09-03T03:50:52;4.63;;;3.65;;
42094;SDS011;27753;55.724;37.612;2022-09-03T03:53:18;8.38;;;3.40;;
42094;SDS011;27753;55.724;37.612;2022-09-03T03:55:56;5.10;;;3.80;;
42094;SDS011;27753;55.724;37.612;2022-09-03T03:58:27;4.30;;;3.15;;
42094;SDS011;27753;55.724;37.612;2022-09-03T04:01:03;7.15;;;3.92;;
42094;SDS011;27753;55.724;37.612;2022-09-03T04:03:30;6.72;;;4.03;;
42094;SDS011;27753;55.724;37.612;2022-09-03T04:05:56;6.03;;;3.60;;
42094;SDS011;27753;55.724;37.612;2022-09-03T04:10:49;4.25;;;3.58;;
42094;SDS011;27753;55.724;37.612;2022-09-03T04:13:15;7.25;;;4.25;;
42094;SDS011;27753;55.724;37.612;2022-09-03T04:15:43;6.32;;;3.72;;
42094;SDS011;27753;55.724;37.612;2022-09-03T04:18:09;5.85;;;3.72;;
42094;SDS011;27753;55.724;37.612;2022-09-03T04:20:35;5.40;;;3.00;;
42094;SDS011;27753;55.724;37.612;2022-09-03T04:23:02;4.15;;;2.85;;
42094;SDS011;27753;55.724;37.612;2022-09-03T04:25:29;4.75;;;3.08;;
42094;SDS011;27753;55.724;37.612;2022-09-03T04:27:55;5.30;;;2.63;;
42094;SDS011;27753;55.724;37.612;2022-09-03T04:30:21;4.95;;;3.22;;
42094;SDS011;27753;55.724;37.612;2022-09-03T04:32:50;5.40;;;3.45;;
42094;SDS011;27753;55.724;37.612;2022-09-03T04:35:17;4.22;;;3.22;;
42094;SDS011;27753;55.724;37.612;2022-09-03T04:37:45;6.35;;;3.17;;
42094;SDS011;27753;55.724;37.612;2022-09-03T04:40:11;4.68;;;2.90;;
42094;SDS011;27753;55.724;37.612;2022-09-03T04:42:37;4.47;;;2.45;;
42094;SDS011;27753;55.724;37.612;2022-09-03T04:45:04;3.90;;;2.85;;
42094;SDS011;27753;55.724;37.612;2022-09-03T04:47:30;5.60;;;2.83;;
42094;SDS011;27753;55.724;37.612;2022-09-03T04:49:56;4.28;;;2.65;;
42094;SDS011;27753;55.724;37.612;2022-09-03T04:52:22;3.83;;;2.65;;
42094;SDS011;27753;55.724;37.612;2022-09-03T04:54:48;5.85;;;2.75;;
42094;SDS011;27753;55.724;37.612;2022-09-03T04:57:15;3.13;;;2.33;;
42094;SDS011;27753;55.724;37.612;2022-09-03T04:59:40;4.43;;;2.35;;
42094;SDS011;27753;55.724;37.612;2022-09-03T05:02:07;6.30;;;2.70;;
42094;SDS011;27753;55.724;37.612;2022-09-03T05:04:34;7.13;;;2.55;;
42094;SDS011;27753;55.724;37.612;2022-09-03T05:07:00;5.93;;;2.22;;
42094;SDS011;27753;55.724;37.612;2022-09-03T05:09:26;3.25;;;2.33;;
42094;SDS011;27753;55.724;37.612;2022-09-03T05:11:52;3.72;;;2.55;;
42094;SDS011;27753;55.724;37.612;2022-09-03T05:14:18;4.57;;;2.63;;
42094;SDS011;27753;55.724;37.612;2022-09-03T05:16:45;3.20;;;2.13;;
42094;SDS011;27753;55.724;37.612;2022-09-03T05:19:11;4.57;;;2.33;;
42094;SDS011;27753;55.724;37.612;2022-09-03T05:21:37;4.15;;;2.78;;
42094;SDS011;27753;55.724;37.612;2022-09-03T05:24:03;4.03;;;2.70;;
42094;SDS011;27753;55.724;37.612;2022-09-03T05:26:34;3.80;;;2.40;;
42094;SDS011;27753;55.724;37.612;2022-09-03T05:29:02;5.22;;;2.67;;
42094;SDS011;27753;55.724;37.612;2022-09-03T05:31:32;3.72;;;2.22;;
42094;SDS011;27753;55.724;37.612;2022-09-03T05:34:00;3.95;;;2.88;;
42094;SDS011;27753;55.724;37.612;2022-09-03T05:36:29;3.47;;;2.40;;
42094;SDS011;27753;55.724;37.612;2022-09-03T05:38:58;4.68;;;2.53;;
42094;SDS011;27753;55.724;37.612;2022-09-03T05:41:25;5.35;;;3.35;;
42094;SDS011;27753;55.724;37.612;2022-09-03T05:43:52;6.20;;;2.83;;
42094;SDS011;27753;55.724;37.612;2022-09-03T05:46:21;3.90;;;2.83;;
42094;SDS011;27753;55.724;37.612;2022-09-03T05:48:50;7.90;;;2.33;;
42094;SDS011;27753;55.724;37.612;2022-09-03T05:51:16;2.47;;;2.05;;
42094;SDS011;27753;55.724;37.612;2022-09-03T05:53:43;3.35;;;2.88;;
42094;SDS011;27753;55.724;37.612;2022-09-03T05:56:11;3.97;;;2.60;;
42094;SDS011;27753;55.724;37.612;2022-09-03T05:58:41;6.35;;;2.10;;
42094;SDS011;27753;55.724;37.612;2022-09-03T06:01:13;2.47;;;2.25;;
42094;SDS011;27753;55.724;37.612;2022-09-03T06:03:59;2.50;;;2.15;;
42094;SDS011;27753;55.724;37.612;2022-09-03T06:06:34;2.42;;;1.90;;
42094;SDS011;27753;55.724;37.612;2022-09-03T06:09:08;4.72;;;2.20;;
42094;SDS011;27753;55.724;37.612;2022-09-03T06:11:38;2.10;;;1.70;;
42094;SDS011;27753;55.724;37.612;2022-09-03T06:14:07;5.00;;;1.60;;
42094;SDS011;27753;55.724;37.612;2022-09-03T06:16:34;4.18;;;2.13;;
42094;SDS011;27753;55.724;37.612;2022-09-03T06:19:03;5.38;;;1.80;;
42094;SDS011;27753;55.724;37.612;2022-09-03T06:21:34;2.17;;;1.77;;
42094;SDS011;27753;55.724;37.612;2022-09-03T06:24:01;3.47;;;1.92;;
42094;SDS011;27753;55.724;37.612;2022-09-03T06:26:28;1.87;;;1.40;;
42094;SDS011;27753;55.724;37.612;2022-09-03T06:28:54;1.50;;;1.23;;
42094;SDS011;27753;55.724;37.612;2022-09-03T06:31:20;2.47;;;1.57;;
42094;SDS011;27753;55.724;37.612;2022-09-03T06:33:47;5.70;;;1.75;;
42094;SDS011;27753;55.724;37.612;2022-09-03T06:36:16;5.28;;;1.80;;
42094;SDS011;27753;55.724;37.612;2022-09-03T06:38:43;5.00;;;2.60;;
42094;SDS011;27753;55.724;37.612;2022-09-03T06:43:53;5.20;;;1.92;;
42094;SDS011;27753;55.724;37.612;2022-09-03T06:46:33;4.13;;;1.40;;
42094;SDS011;27753;55.724;37.612;2022-09-03T06:49:02;2.58;;;1.42;;
42094;SDS011;27753;55.724;37.612;2022-09-03T06:51:29;1.90;;;1.40;;
42094;SDS011;27753;55.724;37.612;2022-09-03T06:54:00;1.85;;;1.25;;
42094;SDS011;27753;55.724;37.612;2022-09-03T06:56:31;2.53;;;1.13;;
42094;SDS011;27753;55.724;37.612;2022-09-03T07:01:25;2.95;;;1.30;;
42094;SDS011;27753;55.724;37.612;2022-09-03T07:03:59;6.05;;;1.75;;
42094;SDS011;27753;55.724;37.612;2022-09-03T07:06:28;3.47;;;1.20;;
42094;SDS011;27753;55.724;37.612;2022-09-03T07:09:04;2.85;;;1.10;;
42094;SDS011;27753;55.724;37.612;2022-09-03T07:11:31;2.13;;;1.20;;
42094;SDS011;27753;55.724;37.612;2022-09-03T07:13:58;5.22;;;2.53;;
42094;SDS011;27753;55.724;37.612;2022-09-03T07:16:25;8.70;;;1.80;;
42094;SDS011;27753;55.724;37.612;2022-09-03T07:18:53;2.53;;;1.50;;
42094;SDS011;27753;55.724;37.612;2022-09-03T07:21:21;5.28;;;1.60;;
42094;SDS011;27753;55.724;37.612;2022-09-03T07:23:50;2.40;;;1.50;;
42094;SDS011;27753;55.724;37.612;2022-09-03T07:26:18;3.08;;;0.90;;
42094;SDS011;27753;55.724;37.612;2022-09-03T07:28:45;5.00;;;2.08;;
42094;SDS011;27753;55.724;37.612;2022-09-03T07:31:23;4.43;;;1.33;;
42094;SDS011;27753;55.724;37.612;2022-09-03T07:33:53;2.95;;;1.42;;
42094;SDS011;27753;55.724;37.612;2022-09-03T07:36:21;1.42;;;1.00;;
42094;SDS011;27753;55.724;37.612;2022-09-03T07:38:50;4.82;;;1.60;;
42094;SDS011;27753;55.724;37.612;2022-09-03T07:41:19;4.22;;;1.70;;
42094;SDS011;27753;55.724;37.612;2022-09-03T07:43:47;3.50;;;1.23;;
42094;SDS011;27753;55.724;37.612;2022-09-03T07:48:51;2.13;;;1.13;;
42094;SDS011;27753;55.724;37.612;2022-09-03T07:51:21;4.18;;;1.20;;
42094;SDS011;27753;55.724;37.612;2022-09-03T07:53:59;3.88;;;1.17;;
42094;SDS011;27753;55.724;37.612;2022-09-03T07:56:27;1.23;;;1.10;;
42094;SDS011;27753;55.724;37.612;2022-09-03T07:58:56;2.70;;;0.80;;
42094;SDS011;27753;55.724;37.612;2022-09-03T08:03:50;5.30;;;1.00;;
42094;SDS011;27753;55.724;37.612;2022-09-03T08:06:18;2.15;;;0.98;;
42094;SDS011;27753;55.724;37.612;2022-09-03T08:08:45;3.53;;;0.90;;
42094;SDS011;27753;55.724;37.612;2022-09-03T08:11:13;1.10;;;0.90;;
42094;SDS011;27753;55.724;37.612;2022-09-03T08:13:44;1.65;;;0.82;;
42094;SDS011;27753;55.724;37.612;2022-09-03T08:16:14;2.55;;;0.95;;
42094;SDS011;27753;55.724;37.612;2022-09-03T08:18:45;2.50;;;0.77;;
42094;SDS011;27753;55.724;37.612;2022-09-03T08:21:16;2.53;;;0.80;;
42094;SDS011;27753;55.724;37.612;2022-09-03T08:23:46;2.35;;;1.30;;
42094;SDS011;27753;55.724;37.612;2022-09-03T08:26:14;2.75;;;1.23;;
42094;SDS011;27753;55.724;37.612;2022-09-03T08:28:41;4.35;;;1.38;;
42094;SDS011;27753;55.724;37.612;2022-09-03T08:33:36;2.75;;;1.30;;
42094;SDS011;27753;55.724;37.612;2022-09-03T08:36:06;2.30;;;1.38;;
42094;SDS011;27753;55.724;37.612;2022-09-03T08:38:57;1.20;;;1.10;;
42094;SDS011;27753;55.724;37.612;2022-09-03T08:44:30;1.00;;;0.90;;
42094;SDS011;27753;55.724;37.612;2022-09-03T08:52:35;2.67;;;1.23;;
42094;SDS011;27753;55.724;37.612;2022-09-03T09:00:50;1.40;;;0.63;;
42094;SDS011;27753;55.724;37.612;2022-09-03T09:06:25;1.98;;;1.20;;
42094;SDS011;27753;55.724;37.612;2022-09-03T09:11:47;0.90;;;0.75;;
42094;SDS011;27753;55.724;37.612;2022-09-03T09:20:34;5.18;;;1.00;;
42094;SDS011;27753;55.724;37.612;2022-09-03T09:23:14;1.45;;;0.75;;
42094;SDS011;27753;55.724;37.612;2022-09-03T09:25:47;2.33;;;0.70;;
42094;SDS011;27753;55.724;37.612;2022-09-03T09:30:43;3.33;;;0.70;;
42094;SDS011;27753;55.724;37.612;2022-09-03T09:33:11;3.33;;;0.95;;
42094;SDS011;27753;55.724;37.612;2022-09-03T09:35:37;1.73;;;1.00;;
42094;SDS011;27753;55.724;37.612;2022-09-03T09:38:06;1.35;;;1.08;;
42094;SDS011;27753;55.724;37.612;2022-09-03T09:40:34;3.40;;;1.10;;
42094;SDS011;27753;55.724;37.612;2022-09-03T09:45:32;1.30;;;0.82;;
42094;SDS011;27753;55.724;37.612;2022-09-03T09:47:59;1.02;;;0.90;;
42094;SDS011;27753;55.724;37.612;2022-09-03T09:50:27;2.15;;;0.90;;
42094;SDS011;27753;55.724;37.612;2022-09-03T09:53:03;2.92;;;1.70;;
42094;SDS011;27753;55.724;37.612;2022-09-03T09:55:47;5.68;;;1.95;;
42094;SDS011;27753;55.724;37.612;2022-09-03T09:58:18;2.05;;;0.90;;
42094;SDS011;27753;55.724;37.612;2022-09-03T10:03:38;3.03;;;1.00;;
42094;SDS011;27753;55.724;37.612;2022-09-03T10:06:14;2.85;;;1.30;;
42094;SDS011;27753;55.724;37.612;2022-09-03T10:09:09;4.13;;;1.45;;
42094;SDS011;27753;55.724;37.612;2022-09-03T10:14:04;4.20;;;1.38;;
42094;SDS011;27753;55.724;37.612;2022-09-03T10:16:38;1.50;;;1.20;;
42094;SDS011;27753;55.724;37.612;2022-09-03T10:19:17;0.77;;;0.77;;
42094;SDS011;27753;55.724;37.612;2022-09-03T10:22:05;3.17;;;1.27;;
42094;SDS011;27753;55.724;37.612;2022-09-03T10:27:25;4.00;;;1.48;;
42094;SDS011;27753;55.724;37.612;2022-09-03T10:32:22;0.68;;;0.52;;
42094;SDS011;27753;55.724;37.612;2022-09-03T10:41:11;1.25;;;1.10;;
42094;SDS011;27753;55.724;37.612;2022-09-03T10:46:12;2.65;;;1.05;;
42094;SDS011;27753;55.724;37.612;2022-09-03T10:56:39;1.67;;;1.00;;
42094;SDS011;27753;55.724;37.612;2022-09-03T11:07:03;4.72;;;0.82;;
42094;SDS011;27753;55.724;37.612;2022-09-03T11:09:35;1.02;;;0.82;;
42094;SDS011;27753;55.724;37.612;2022-09-03T11:12:26;1.45;;;0.88;;
42094;SDS011;27753;55.724;37.612;2022-09-03T11:15:14;5.18;;;1.10;;
42094;SDS011;27753;55.724;37.612;2022-09-03T11:17:38;3.67;;;1.00;;
42094;SDS011;27753;55.724;37.612;2022-09-03T11:20:16;2.47;;;1.35;;
42094;SDS011;27753;55.724;37.612;2022-09-03T11:22:44;4.75;;;1.50;;
42094;SDS011;27753;55.724;37.612;2022-09-03T11:25:12;4.20;;;1.17;;
42094;SDS011;27753;55.724;37.612;2022-09-03T11:30:09;1.83;;;1.00;;
42094;SDS011;27753;55.724;37.612;2022-09-03T11:35:14;3.00;;;1.70;;
42094;SDS011;27753;55.724;37.612;2022-09-03T11:37:46;1.40;;;1.10;;
42094;SDS011;27753;55.724;37.612;2022-09-03T11:40:16;0.70;;;0.70;;
42094;SDS011;27753;55.724;37.612;2022-09-03T11:42:44;2.38;;;1.00;;
42094;SDS011;27753;55.724;37.612;2022-09-03T11:47:46;3.63;;;1.15;;
42094;SDS011;27753;55.724;37.612;2022-09-03T11:52:44;3.70;;;1.27;;
42094;SDS011;27753;55.724;37.612;2022-09-03T11:55:22;2.63;;;1.38;;
42094;SDS011;27753;55.724;37.612;2022-09-03T11:57:50;3.30;;;1.67;;
42094;SDS011;27753;55.724;37.612;2022-09-03T12:00:19;2.47;;;1.63;;
42094;SDS011;27753;55.724;37.612;2022-09-03T12:02:55;1.13;;;0.73;;
42094;SDS011;27753;55.724;37.612;2022-09-03T12:18:08;2.80;;;1.30;;
42094;SDS011;27753;55.724;37.612;2022-09-03T12:20:46;1.70;;;1.00;;
42094;SDS011;27753;55.724;37.612;2022-09-03T12:23:13;3.50;;;2.17;;
42094;SDS011;27753;55.724;37.612;2022-09-03T12:25:52;1.83;;;1.40;;
42094;SDS011;27753;55.724;37.612;2022-09-03T12:28:20;2.03;;;1.00;;
42094;SDS011;27753;55.724;37.612;2022-09-03T12:30:48;4.35;;;1.38;;
42094;SDS011;27753;55.724;37.612;2022-09-03T12:36:02;2.97;;;1.80;;
42094;SDS011;27753;55.724;37.612;2022-09-03T12:38:33;3.80;;;1.40;;
42094;SDS011;27753;55.724;37.612;2022-09-03T12:41:01;1.42;;;0.90;;
42094;SDS011;27753;55.724;37.612;2022-09-03T12:43:27;2.40;;;1.60;;
42094;SDS011;27753;55.724;37.612;2022-09-03T12:45:54;2.05;;;1.40;;
42094;SDS011;27753;55.724;37.612;2022-09-03T12:48:20;5.03;;;1.50;;
42094;SDS011;27753;55.724;37.612;2022-09-03T12:50:47;4.38;;;1.30;;
42094;SDS011;27753;55.724;37.612;2022-09-03T12:53:23;4.65;;;1.33;;
42094;SDS011;27753;55.724;37.612;2022-09-03T12:55:51;2.25;;;1.40;;
42094;SDS011;27753;55.724;37.612;2022-09-03T12:58:27;4.13;;;1.13;;
42094;SDS011;27753;55.724;37.612;2022-09-03T13:06:14;5.57;;;1.77;;
42094;SDS011;27753;55.724;37.612;2022-09-03T13:08:45;5.75;;;2.08;;
42094;SDS011;27753;55.724;37.612;2022-09-03T13:11:14;2.47;;;1.48;;
42094;SDS011;27753;55.724;37.612;2022-09-03T13:13:47;9.98;;;1.83;;
42094;SDS011;27753;55.724;37.612;2022-09-03T13:31:43;3.95;;;1.38;;
42094;SDS011;27753;55.724;37.612;2022-09-03T13:39:34;3.25;;;1.30;;
42094;SDS011;27753;55.724;37.612;2022-09-03T13:42:02;3.33;;;1.17;;
42094;SDS011;27753;55.724;37.612;2022-09-03T13:49:47;2.13;;;0.80;;
42094;SDS011;27753;55.724;37.612;2022-09-03T13:52:45;0.80;;;0.68;;
42094;SDS011;27753;55.724;37.612;2022-09-03T13:55:19;3.58;;;1.27;;
42094;SDS011;27753;55.724;37.612;2022-09-03T13:57:55;1.88;;;1.10;;
42094;SDS011;27753;55.724;37.612;2022-09-03T14:00:25;3.20;;;1.20;;
42094;SDS011;27753;55.724;37.612;2022-09-03T14:02:56;2.72;;;0.98;;
42094;SDS011;27753;55.724;37.612;2022-09-03T14:05:34;2.38;;;1.20;;
42094;SDS011;27753;55.724;37.612;2022-09-03T14:13:20;4.55;;;1.73;;
42094;SDS011;27753;55.724;37.612;2022-09-03T14:15:59;2.20;;;1.00;;
42094;SDS011;27753;55.724;37.612;2022-09-03T14:20:57;1.55;;;0.70;;
42094;SDS011;27753;55.724;37.612;2022-09-03T14:23:26;0.98;;;0.73;;
42094;SDS011;27753;55.724;37.612;2022-09-03T14:25:54;2.10;;;1.00;;
42094;SDS011;27753;55.724;37.612;2022-09-03T14:36:29;3.72;;;1.55;;
42094;SDS011;27753;55.724;37.612;2022-09-03T14:41:56;3.90;;;2.70;;
42094;SDS011;27753;55.724;37.612;2022-09-03T14:44:27;3.03;;;1.90;;
42094;SDS011;27753;55.724;37.612;2022-09-03T14:47:08;1.80;;;1.05;;
42094;SDS011;27753;55.724;37.612;2022-09-03T14:50:00;1.75;;;1.00;;
42094;SDS011;27753;55.724;37.612;2022-09-03T14:52:47;2.60;;;1.75;;
42094;SDS011;27753;55.724;37.612;2022-09-03T14:55:24;2.13;;;1.33;;
42094;SDS011;27753;55.724;37.612;2022-09-03T15:00:20;1.30;;;1.00;;
42094;SDS011;27753;55.724;37.612;2022-09-03T15:05:56;3.50;;;1.80;;
42094;SDS011;27753;55.724;37.612;2022-09-03T15:11:02;4.47;;;2.30;;
42094;SDS011;27753;55.724;37.612;2022-09-03T15:13:30;3.30;;;1.60;;
42094;SDS011;27753;55.724;37.612;2022-09-03T15:20:57;5.47;;;1.63;;
42094;SDS011;27753;55.724;37.612;2022-09-03T15:28:49;2.72;;;1.15;;
42094;SDS011;27753;55.724;37.612;2022-09-03T15:31:21;1.75;;;1.33;;
42094;SDS011;27753;55.724;37.612;2022-09-03T15:33:57;4.70;;;1.27;;
42094;SDS011;27753;55.724;37.612;2022-09-03T15:36:48;4.65;;;1.50;;
42094;SDS011;27753;55.724;37.612;2022-09-03T15:39:23;4.05;;;1.63;;
42094;SDS011;27753;55.724;37.612;2022-09-03T15:41:52;4.65;;;1.45;;
42094;SDS011;27753;55.724;37.612;2022-09-03T15:44:21;3.53;;;1.48;;
42094;SDS011;27753;55.724;37.612;2022-09-03T15:46:57;4.15;;;1.40;;
42094;SDS011;27753;55.724;37.612;2022-09-03T15:49:35;8.23;;;2.55;;
42094;SDS011;27753;55.724;37.612;2022-09-03T15:54:45;1.75;;;1.40;;
42094;SDS011;27753;55.724;37.612;2022-09-03T15:57:19;3.58;;;1.85;;
42094;SDS011;27753;55.724;37.612;2022-09-03T15:59:59;5.47;;;2.22;;
42094;SDS011;27753;55.724;37.612;2022-09-03T16:02:30;4.40;;;1.92;;
42094;SDS011;27753;55.724;37.612;2022-09-03T16:10:20;4.80;;;3.05;;
42094;SDS011;27753;55.724;37.612;2022-09-03T16:15:35;12.60;;;3.20;;
42094;SDS011;27753;55.724;37.612;2022-09-03T16:24:19;4.90;;;2.95;;
42094;SDS011;27753;55.724;37.612;2022-09-03T16:26:20;8.95;;;2.92;;
42094;SDS011;27753;55.724;37.612;2022-09-03T16:28:53;7.50;;;2.65;;
42094;SDS011;27753;55.724;37.612;2022-09-03T16:31:35;7.70;;;2.65;;
42094;SDS011;27753;55.724;37.612;2022-09-03T16:50:15;5.65;;;3.33;;
42094;SDS011;27753;55.724;37.612;2022-09-03T17:00:19;8.02;;;3.15;;
42094;SDS011;27753;55.724;37.612;2022-09-03T17:05:44;11.40;;;3.72;;
42094;SDS011;27753;55.724;37.612;2022-09-03T17:24:35;6.05;;;2.95;;
42094;SDS011;27753;55.724;37.612;2022-09-03T17:50:33;3.30;;;2.13;;
42094;SDS011;27753;55.724;37.612;2022-09-03T17:53:51;4.43;;;1.75;;
42094;SDS011;27753;55.724;37.612;2022-09-03T17:56:00;7.22;;;2.47;;
42094;SDS011;27753;55.724;37.612;2022-09-03T17:58:30;3.33;;;1.75;;
42094;SDS011;27753;55.724;37.612;2022-09-03T18:03:24;7.10;;;2.55;;
42094;SDS011;27753;55.724;37.612;2022-09-03T18:05:56;6.20;;;2.05;;
42094;SDS011;27753;55.724;37.612;2022-09-03T18:08:29;5.90;;;2.50;;
42094;SDS011;27753;55.724;37.612;2022-09-03T18:18:29;6.60;;;2.80;;
42094;SDS011;27753;55.724;37.612;2022-09-03T18:24:26;7.00;;;2.97;;
42094;SDS011;27753;55.724;37.612;2022-09-03T18:27:22;4.05;;;2.50;;
42094;SDS011;27753;55.724;37.612;2022-09-03T18:30:11;5.68;;;2.67;;
42094;SDS011;27753;55.724;37.612;2022-09-03T18:32:57;8.55;;;5.13;;
42094;SDS011;27753;55.724;37.612;2022-09-03T18:35:42;9.05;;;3.38;;
42094;SDS011;27753;55.724;37.612;2022-09-03T18:38:34;8.40;;;4.38;;
42094;SDS011;27753;55.724;37.612;2022-09-03T18:50:20;6.28;;;2.80;;
42094;SDS011;27753;55.724;37.612;2022-09-03T18:56:07;10.65;;;3.00;;
42094;SDS011;27753;55.724;37.612;2022-09-03T19:01:58;6.47;;;3.67;;
42094;SDS011;27753;55.724;37.612;2022-09-03T19:10:21;6.97;;;2.97;;
42094;SDS011;27753;55.724;37.612;2022-09-03T19:13:12;13.95;;;4.28;;
42094;SDS011;27753;55.724;37.612;2022-09-03T19:21:47;8.60;;;5.07;;
42094;SDS011;27753;55.724;37.612;2022-09-03T19:24:35;11.63;;;6.68;;
42094;SDS011;27753;55.724;37.612;2022-09-03T19:30:12;10.23;;;5.22;;
42094;SDS011;27753;55.724;37.612;2022-09-03T19:33:20;9.60;;;4.93;;
42094;SDS011;27753;55.724;37.612;2022-09-03T19:50:33;9.75;;;3.10;;
42094;SDS011;27753;55.724;37.612;2022-09-03T19:53:20;10.88;;;3.03;;
42094;SDS011;27753;55.724;37.612;2022-09-03T19:56:10;5.75;;;3.50;;
42094;SDS011;27753;55.724;37.612;2022-09-03T19:58:59;7.80;;;3.15;;
42094;SDS011;27753;55.724;37.612;2022-09-03T20:04:30;9.60;;;3.53;;
42094;SDS011;27753;55.724;37.612;2022-09-03T20:07:15;5.93;;;3.60;;
42094;SDS011;27753;55.724;37.612;2022-09-03T20:10:02;9.43;;;3.55;;
42094;SDS011;27753;55.724;37.612;2022-09-03T20:12:55;6.90;;;4.18;;
42094;SDS011;27753;55.724;37.612;2022-09-03T20:15:25;5.28;;;3.55;;
42094;SDS011;27753;55.724;37.612;2022-09-03T20:20:24;13.07;;;4.45;;
42094;SDS011;27753;55.724;37.612;2022-09-03T20:23:00;9.75;;;4.30;;
42094;SDS011;27753;55.724;37.612;2022-09-03T20:28:10;11.40;;;4.13;;
42094;SDS011;27753;55.724;37.612;2022-09-03T20:33:25;6.53;;;4.03;;
42094;SDS011;27753;55.724;37.612;2022-09-03T20:35:59;11.00;;;4.65;;
42094;SDS011;27753;55.724;37.612;2022-09-03T20:41:20;8.80;;;3.92;;
42094;SDS011;27753;55.724;37.612;2022-09-03T20:49:09;6.15;;;3.83;;
42094;SDS011;27753;55.724;37.612;2022-09-03T20:51:40;9.68;;;3.92;;
42094;SDS011;27753;55.724;37.612;2022-09-03T20:56:38;7.07;;;4.30;;
42094;SDS011;27753;55.724;37.612;2022-09-03T21:12:17;9.55;;;4.72;;
42094;SDS011;27753;55.724;37.612;2022-09-03T21:14:53;10.13;;;4.68;;
42094;SDS011;27753;55.724;37.612;2022-09-03T21:24:52;7.97;;;4.82;;
42094;SDS011;27753;55.724;37.612;2022-09-03T21:27:22;11.40;;;5.40;;
42094;SDS011;27753;55.724;37.612;2022-09-03T21:29:55;10.45;;;6.60;;
42094;SDS011;27753;55.724;37.612;2022-09-03T21:32:24;11.20;;;5.60;;
42094;SDS011;27753;55.724;37.612;2022-09-03T21:37:23;8.40;;;5.00;;
42094;SDS011;27753;55.724;37.612;2022-09-03T21:39:50;8.80;;;5.07;;
42094;SDS011;27753;55.724;37.612;2022-09-03T21:42:35;8.23;;;4.78;;
42094;SDS011;27753;55.724;37.612;2022-09-03T21:45:11;9.15;;;4.80;;
42094;SDS011;27753;55.724;37.612;2022-09-03T21:47:39;8.63;;;5.43;;
42094;SDS011;27753;55.724;37.612;2022-09-03T21:50:16;8.50;;;4.85;;
42094;SDS011;27753;55.724;37.612;2022-09-03T21:52:53;10.30;;;5.40;;
42094;SDS011;27753;55.724;37.612;2022-09-03T22:00:25;10.13;;;5.07;;
42094;SDS011;27753;55.724;37.612;2022-09-03T22:02:57;8.32;;;4.95;;
42094;SDS011;27753;55.724;37.612;2022-09-03T22:05:24;11.30;;;4.63;;
42094;SDS011;27753;55.724;37.612;2022-09-03T22:10:34;7.82;;;4.32;;